Time;durP1;ratioP1;P1;durP2;ratioP2;P2;SDS_P1;SDS_P2;PMS_P1;PMS_P2;Temp;Humidity;BMP_temperature;BMP_pressure;BME280_temperature;BME280_humidity;BME280_pressure;Samples;Min_cycle;Max_cycle;Signal;HPM_P1;HPM_P2
2021/03/12 00:02:09;;;;;;;0.40;0.25;;;4.70;99.90;;;;;;4810244;29;20462;-78
2021/03/12 00:04:40;;;;;;;0.35;0.22;;;4.70;99.90;;;;;;4810755;29;20050;-78
2021/03/12 00:07:06;;;;;;;0.63;0.30;;;4.60;99.90;;;;;;4810058;29;20127;-77
2021/03/12 00:09:32;;;;;;;0.30;0.30;;;4.60;99.90;;;;;;4809517;29;20455;-77
2021/03/12 00:11:59;;;;;;;1.00;0.20;;;4.60;99.90;;;;;;4825308;29;20073;-77
2021/03/12 00:14:25;;;;;;;0.43;0.30;;;4.60;99.90;;;;;;4825061;29;20793;-77
2021/03/12 00:16:56;;;;;;;0.65;0.30;;;4.60;99.90;;;;;;4825067;29;20486;-77
2021/03/12 00:19:28;;;;;;;1.10;0.20;;;4.60;99.90;;;;;;4824591;29;20099;-77
2021/03/12 00:21:54;;;;;;;0.30;0.30;;;4.50;99.90;;;;;;4801558;29;20061;-77
2021/03/12 00:24:21;;;;;;;0.50;0.30;;;4.40;99.90;;;;;;4791558;29;20099;-77
2021/03/12 00:26:48;;;;;;;0.82;0.20;;;4.50;99.90;;;;;;4802029;29;20046;-77
2021/03/12 00:29:19;;;;;;;0.20;0.20;;;4.50;99.90;;;;;;4793029;29;20118;-77
2021/03/12 00:31:45;;;;;;;0.80;0.30;;;4.50;99.90;;;;;;4802787;29;20133;-76
2021/03/12 00:34:17;;;;;;;0.77;0.20;;;4.40;99.90;;;;;;4790807;29;20517;-77
2021/03/12 00:36:48;;;;;;;0.30;0.30;;;4.50;99.90;;;;;;4789831;29;20074;-77
2021/03/12 00:39:14;;;;;;;0.52;0.40;;;4.40;99.90;;;;;;4792989;29;20050;-77
2021/03/12 00:41:41;;;;;;;0.50;0.30;;;4.50;99.90;;;;;;4801436;29;20050;-77
2021/03/12 00:44:07;;;;;;;0.35;0.20;;;4.50;99.90;;;;;;4799820;29;20113;-77
2021/03/12 00:46:44;;;;;;;0.20;0.20;;;4.50;99.90;;;;;;4804499;29;20061;-77
2021/03/12 00:49:10;;;;;;;0.20;0.20;;;4.50;99.90;;;;;;4805545;29;20529;-77
2021/03/12 00:51:44;;;;;;;0.60;0.30;;;4.60;99.90;;;;;;4807714;29;20498;-77
2021/03/12 00:54:14;;;;;;;0.82;0.30;;;4.60;99.90;;;;;;4807405;29;20141;-77
2021/03/12 00:56:54;;;;;;;0.50;0.32;;;4.70;99.90;;;;;;4808881;29;20070;-78
2021/03/12 00:59:26;;;;;;;0.52;0.20;;;4.70;99.90;;;;;;4807462;29;20058;-77
2021/03/12 01:01:58;;;;;;;0.95;0.25;;;4.70;99.90;;;;;;4807600;29;20141;-77
2021/03/12 01:04:29;;;;;;;1.67;0.40;;;4.70;99.90;;;;;;4807465;29;20058;-77
2021/03/12 01:07:03;;;;;;;1.40;0.50;;;4.70;99.90;;;;;;4821893;29;20138;-77
2021/03/12 01:09:29;;;;;;;0.20;0.20;;;4.70;99.90;;;;;;4806807;29;20436;-77
2021/03/12 01:11:55;;;;;;;0.63;0.32;;;4.80;99.90;;;;;;4822044;29;20043;-77
2021/03/12 01:14:23;;;;;;;0.47;0.35;;;4.80;99.90;;;;;;4806746;29;20133;-78
2021/03/12 01:16:51;;;;;;;2.05;0.60;;;4.80;99.90;;;;;;4807079;29;20055;-78
2021/03/12 01:19:18;;;;;;;0.28;0.28;;;4.80;99.90;;;;;;4806676;29;20054;-77
2021/03/12 01:21:57;;;;;;;3.30;0.35;;;4.80;99.90;;;;;;4808211;29;20109;-77
2021/03/12 01:24:24;;;;;;;0.40;0.25;;;4.80;99.90;;;;;;4807033;29;20054;-77
2021/03/12 01:27:00;;;;;;;1.75;0.40;;;4.80;99.90;;;;;;4821436;29;20046;-77
2021/03/12 01:29:28;;;;;;;0.55;0.30;;;4.80;99.90;;;;;;4806630;29;20073;-77
2021/03/12 01:32:22;;;;;;;0.95;0.40;;;4.80;99.90;;;;;;4809913;29;20046;-77
2021/03/12 01:34:55;;;;;;;0.75;0.40;;;4.80;99.90;;;;;;4807181;29;20510;-78
2021/03/12 01:37:34;;;;;;;1.25;0.30;;;4.80;99.90;;;;;;4807947;29;20123;-78
2021/03/12 01:40:05;;;;;;;0.88;0.30;;;4.80;99.90;;;;;;4806221;29;20066;-77
2021/03/12 01:42:42;;;;;;;1.55;0.20;;;4.80;99.90;;;;;;4806670;29;20050;-77
2021/03/12 01:45:13;;;;;;;0.73;0.20;;;4.80;99.90;;;;;;4806259;29;20145;-77
2021/03/12 01:47:41;;;;;;;0.28;0.20;;;4.80;99.90;;;;;;4806164;29;20460;-78
2021/03/12 01:50:13;;;;;;;0.32;0.30;;;4.80;99.90;;;;;;4806717;29;20042;-78
2021/03/12 01:52:42;;;;;;;0.80;0.25;;;4.80;99.90;;;;;;4806118;29;20074;-77
2021/03/12 01:55:22;;;;;;;0.68;0.30;;;4.80;99.90;;;;;;4805935;29;20574;-77
2021/03/12 01:57:54;;;;;;;2.28;0.32;;;4.80;99.90;;;;;;4806392;29;20103;-78
2021/03/12 02:00:34;;;;;;;0.30;0.30;;;4.90;99.90;;;;;;4807171;29;20046;-77
2021/03/12 02:03:12;;;;;;;0.38;0.35;;;4.90;99.90;;;;;;4806610;29;20085;-77
2021/03/12 02:05:55;;;;;;;0.98;0.40;;;4.90;99.90;;;;;;4820979;29;20542;-78
2021/03/12 02:08:22;;;;;;;2.20;0.30;;;4.90;99.90;;;;;;4805108;29;20055;-78
2021/03/12 02:10:57;;;;;;;0.47;0.20;;;5.00;99.90;;;;;;4806776;29;20051;-77
2021/03/12 02:13:39;;;;;;;0.32;0.20;;;5.00;99.90;;;;;;4806359;29;20533;-78
2021/03/12 02:16:12;;;;;;;0.60;0.30;;;5.00;99.90;;;;;;4805490;29;20077;-77
2021/03/12 02:19:15;;;;;;;0.93;0.30;;;4.90;99.90;;;;;;4819657;29;20054;-78
2021/03/12 02:21:52;;;;;;;1.05;0.30;;;4.90;99.90;;;;;;4806292;29;20047;-77
2021/03/12 02:24:40;;;;;;;1.10;0.20;;;4.90;99.90;;;;;;4805913;29;20137;-78
2021/03/12 02:27:23;;;;;;;0.60;0.60;;;4.80;99.90;;;;;;4806811;29;20415;-78
2021/03/12 02:29:55;;;;;;;1.05;0.40;;;4.90;99.90;;;;;;4805361;29;20054;-78
2021/03/12 02:32:40;;;;;;;0.82;0.22;;;5.00;99.90;;;;;;4806887;29;20053;-78
2021/03/12 02:35:14;;;;;;;3.10;0.40;;;5.00;99.90;;;;;;4805662;29;20468;-78
2021/03/12 02:37:52;;;;;;;0.82;0.20;;;5.00;99.90;;;;;;4805784;29;20475;-77
2021/03/12 02:40:21;;;;;;;1.10;0.40;;;5.00;99.90;;;;;;4805710;29;20133;-78
2021/03/12 02:43:04;;;;;;;2.72;0.30;;;5.00;99.90;;;;;;4807351;29;20131;-78
2021/03/12 02:45:36;;;;;;;1.27;0.28;;;5.00;99.90;;;;;;4805893;29;20050;-78
2021/03/12 02:48:15;;;;;;;0.40;0.40;;;5.00;99.90;;;;;;4806299;29;20042;-78
2021/03/12 02:50:46;;;;;;;1.33;0.63;;;4.90;99.90;;;;;;4805912;29;20118;-77
2021/03/12 02:53:23;;;;;;;1.52;0.30;;;4.90;99.90;;;;;;4820207;29;20069;-78
2021/03/12 02:56:04;;;;;;;1.33;0.30;;;4.90;99.90;;;;;;4807042;29;20055;-78
2021/03/12 02:58:34;;;;;;;0.50;0.30;;;4.90;99.90;;;;;;4805026;29;20157;-78
2021/03/12 03:01:06;;;;;;;1.30;0.30;;;4.90;99.90;;;;;;4805826;29;20107;-78
2021/03/12 03:04:02;;;;;;;2.50;0.88;;;4.90;99.90;;;;;;4787414;29;20061;-78
2021/03/12 03:06:36;;;;;;;0.60;0.30;;;4.90;99.90;;;;;;4806101;29;20053;-78
2021/03/12 03:09:04;;;;;;;1.17;0.55;;;4.90;99.90;;;;;;4805033;29;20575;-78
2021/03/12 03:11:36;;;;;;;0.73;0.30;;;4.90;99.90;;;;;;4805925;29;20061;-78
2021/03/12 03:14:05;;;;;;;1.10;0.40;;;4.90;99.90;;;;;;4805381;29;20139;-77
2021/03/12 03:16:35;;;;;;;2.33;0.77;;;4.90;99.90;;;;;;4805180;29;20054;-77
2021/03/12 03:19:02;;;;;;;1.40;0.38;;;4.90;99.90;;;;;;4804808;29;20483;-77
2021/03/12 03:21:35;;;;;;;1.30;0.40;;;4.90;99.90;;;;;;4805627;29;20104;-78
2021/03/12 03:24:08;;;;;;;0.85;0.28;;;5.00;99.90;;;;;;4805539;29;20570;-78
2021/03/12 03:26:40;;;;;;;1.05;0.30;;;5.00;99.90;;;;;;4805577;29;20506;-78
2021/03/12 03:29:12;;;;;;;1.73;0.50;;;4.90;99.90;;;;;;4805526;29;20042;-77
2021/03/12 03:31:45;;;;;;;2.17;0.65;;;4.90;99.90;;;;;;4805396;29;20050;-78
2021/03/12 03:34:18;;;;;;;2.22;0.50;;;4.80;99.90;;;;;;4805729;29;20046;-77
2021/03/12 03:36:45;;;;;;;0.85;0.40;;;4.70;99.90;;;;;;4820008;29;20055;-77
2021/03/12 03:39:17;;;;;;;6.70;0.70;;;4.80;99.90;;;;;;4805254;29;20141;-78
2021/03/12 03:41:51;;;;;;;;;;;4.80;99.90;;;;;;4820635;29;20053;-78
2021/03/12 03:44:28;;;;;;;0.85;0.40;;;4.80;99.90;;;;;;4805744;29;19936;-78
2021/03/12 03:47:03;;;;;;;2.20;0.50;;;4.80;99.90;;;;;;4805593;29;20507;-78
2021/03/12 03:49:36;;;;;;;0.60;0.40;;;4.80;99.90;;;;;;4805311;29;20053;-78
2021/03/12 03:52:09;;;;;;;2.10;0.40;;;4.70;99.90;;;;;;4805498;29;20403;-78
2021/03/12 03:54:52;;;;;;;;;;;4.70;99.90;;;;;;4806888;29;20111;-78
2021/03/12 03:57:23;;;;;;;1.52;0.38;;;4.70;99.90;;;;;;4804819;29;19956;-77
2021/03/12 03:59:51;;;;;;;2.42;0.30;;;4.70;99.90;;;;;;4819600;29;20058;-78
2021/03/12 04:02:19;;;;;;;1.60;0.38;;;4.70;99.90;;;;;;4804911;29;20056;-78
2021/03/12 04:04:52;;;;;;;0.75;0.32;;;4.60;99.90;;;;;;4805541;29;20065;-78
2021/03/12 04:07:26;;;;;;;3.25;0.50;;;4.60;99.90;;;;;;4808024;29;20058;-78
2021/03/12 04:09:55;;;;;;;1.77;0.50;;;4.70;99.90;;;;;;4807918;29;20511;-78
2021/03/12 04:12:29;;;;;;;;;;;4.70;99.90;;;;;;4809277;29;20054;-77
2021/03/12 04:15:04;;;;;;;0.90;0.45;;;4.70;99.90;;;;;;4808552;29;20015;-78
2021/03/12 04:17:33;;;;;;;0.88;0.50;;;4.70;99.90;;;;;;4808386;29;20050;-78
2021/03/12 04:20:06;;;;;;;0.52;0.30;;;4.70;99.90;;;;;;4822679;29;20060;-78
2021/03/12 04:22:34;;;;;;;0.73;0.30;;;4.70;99.90;;;;;;4808066;29;20156;-78
2021/03/12 04:25:07;;;;;;;2.55;0.35;;;4.70;99.90;;;;;;4808852;29;20054;-77
2021/03/12 04:27:39;;;;;;;0.77;0.30;;;4.70;99.90;;;;;;4808511;29;20046;-78
2021/03/12 04:30:07;;;;;;;1.50;0.30;;;4.60;99.90;;;;;;4808855;29;20058;-78
2021/03/12 04:32:40;;;;;;;1.20;0.38;;;4.60;99.90;;;;;;4823219;29;20054;-76
2021/03/12 04:35:12;;;;;;;1.52;0.30;;;4.50;99.90;;;;;;4823099;29;20107;-77
2021/03/12 04:37:40;;;;;;;0.50;0.38;;;4.50;99.90;;;;;;4808140;29;20074;-76
2021/03/12 04:40:16;;;;;;;2.45;0.35;;;4.50;99.90;;;;;;4808917;29;20053;-76
2021/03/12 04:42:50;;;;;;;0.63;0.30;;;4.50;99.90;;;;;;4808192;29;20056;-76
2021/03/12 04:45:22;;;;;;;0.43;0.40;;;4.50;99.90;;;;;;4807147;29;20497;-76
2021/03/12 04:47:58;;;;;;;1.13;0.30;;;4.50;99.90;;;;;;4806774;29;20042;-75
2021/03/12 04:50:32;;;;;;;0.70;0.47;;;4.50;99.90;;;;;;4807828;29;20066;-76
2021/03/12 04:53:05;;;;;;;0.68;0.32;;;4.60;99.90;;;;;;4807846;29;20567;-76
2021/03/12 04:55:33;;;;;;;2.08;0.57;;;4.60;99.90;;;;;;4807472;29;20472;-76
2021/03/12 04:58:06;;;;;;;0.65;0.30;;;4.60;99.90;;;;;;4807797;29;20142;-76
2021/03/12 05:00:38;;;;;;;8.05;0.75;;;4.50;99.90;;;;;;4807747;29;20046;-76
2021/03/12 05:03:13;;;;;;;2.60;0.50;;;4.50;99.90;;;;;;4822127;29;20038;-77
2021/03/12 05:05:46;;;;;;;1.58;0.77;;;4.50;99.90;;;;;;4821651;29;20080;-76
2021/03/12 05:08:21;;;;;;;2.70;0.95;;;4.50;99.90;;;;;;4807454;29;20054;-76
2021/03/12 05:11:08;;;;;;;1.15;0.45;;;4.50;99.90;;;;;;4808749;29;20511;-76
2021/03/12 05:13:50;;;;;;;1.95;0.43;;;4.60;99.90;;;;;;4808322;29;20413;-76
2021/03/12 05:16:27;;;;;;;1.27;0.40;;;4.60;99.90;;;;;;4807734;29;20133;-76
2021/03/12 05:18:58;;;;;;;2.95;0.30;;;4.60;99.90;;;;;;4821394;29;20536;-76
2021/03/12 05:21:25;;;;;;;1.00;0.50;;;4.60;99.90;;;;;;4806725;29;20427;-76
2021/03/12 05:23:59;;;;;;;1.52;0.30;;;4.60;99.90;;;;;;4807545;29;20507;-76
2021/03/12 05:26:31;;;;;;;2.78;0.43;;;4.60;99.90;;;;;;4821428;29;20533;-76
2021/03/12 05:28:57;;;;;;;1.08;0.47;;;4.60;99.90;;;;;;4806154;29;20046;-76
2021/03/12 05:31:30;;;;;;;4.55;0.70;;;4.60;99.90;;;;;;4821559;29;20121;-76
2021/03/12 05:34:02;;;;;;;4.18;0.70;;;4.50;99.90;;;;;;4806987;29;20122;-76
2021/03/12 05:36:38;;;;;;;2.10;0.75;;;4.50;99.90;;;;;;4821722;29;20054;-76
2021/03/12 05:39:12;;;;;;;0.30;0.22;;;4.40;99.90;;;;;;4807041;29;20723;-76
2021/03/12 05:41:43;;;;;;;0.68;0.30;;;4.40;99.90;;;;;;4803082;29;20042;-76
2021/03/12 05:44:18;;;;;;;1.05;0.60;;;4.30;99.90;;;;;;4805292;29;20050;-76
2021/03/12 05:46:53;;;;;;;1.08;0.32;;;4.30;99.90;;;;;;4791435;29;20042;-76
2021/03/12 05:49:21;;;;;;;2.33;0.30;;;4.30;99.90;;;;;;4789883;29;20038;-76
2021/03/12 05:51:53;;;;;;;1.48;0.68;;;4.30;99.90;;;;;;4791111;29;20068;-76
2021/03/12 05:54:25;;;;;;;3.10;0.70;;;4.30;99.90;;;;;;4791117;29;20042;-76
2021/03/12 05:56:52;;;;;;;1.73;0.77;;;4.30;99.90;;;;;;4790670;29;20649;-76
2021/03/12 05:59:25;;;;;;;1.27;0.50;;;4.30;99.90;;;;;;4804626;29;20054;-76
2021/03/12 06:02:00;;;;;;;2.15;0.55;;;4.30;99.90;;;;;;4804976;29;20057;-76
2021/03/12 06:04:31;;;;;;;1.20;0.40;;;4.20;99.90;;;;;;4805239;29;20046;-76
2021/03/12 06:07:05;;;;;;;1.33;0.40;;;4.20;99.90;;;;;;4791146;29;20130;-76
2021/03/12 06:09:37;;;;;;;0.68;0.30;;;4.20;99.90;;;;;;4790371;29;20137;-76
2021/03/12 06:12:10;;;;;;;0.95;0.30;;;4.20;99.90;;;;;;4804852;29;20042;-76
2021/03/12 06:14:56;;;;;;;2.47;0.52;;;4.30;99.90;;;;;;4789971;29;20472;-76
2021/03/12 06:17:41;;;;;;;1.17;0.40;;;4.30;99.90;;;;;;4804891;29;20070;-76
2021/03/12 06:20:34;;;;;;;3.17;0.40;;;4.40;99.90;;;;;;4809844;29;20066;-77
2021/03/12 06:23:06;;;;;;;1.05;0.50;;;4.40;99.90;;;;;;4792969;29;20050;-77
2021/03/12 06:25:37;;;;;;;1.48;0.50;;;4.40;99.90;;;;;;4790531;29;20518;-76
2021/03/12 06:28:20;;;;;;;2.88;0.50;;;4.50;99.90;;;;;;4810082;29;20038;-76
2021/03/12 06:31:30;;;;;;;3.97;0.85;;;4.50;99.90;;;;;;4809602;29;20144;-76
2021/03/12 06:34:11;;;;;;;0.98;0.52;;;4.50;99.90;;;;;;4815636;29;20522;-76
2021/03/12 06:37:29;;;;;;;2.95;0.40;;;4.50;99.90;;;;;;4806017;29;20406;-76
2021/03/12 06:40:19;;;;;;;0.68;0.40;;;4.60;99.90;;;;;;4828460;29;20052;-77
2021/03/12 06:43:16;;;;;;;0.47;0.38;;;4.60;99.90;;;;;;4804328;29;20421;-76
2021/03/12 06:45:50;;;;;;;3.35;0.60;;;4.60;99.90;;;;;;4804210;29;20134;-76
2021/03/12 06:48:25;;;;;;;0.73;0.65;;;4.60;99.90;;;;;;4804006;29;20511;-76
2021/03/12 06:51:17;;;;;;;1.38;0.30;;;4.60;99.90;;;;;;4807974;29;20050;-77
2021/03/12 06:53:49;;;;;;;2.20;0.40;;;4.60;99.90;;;;;;4804723;29;20069;-76
2021/03/12 06:56:27;;;;;;;1.95;0.57;;;4.60;99.90;;;;;;4788832;29;20084;-76
2021/03/12 06:59:05;;;;;;;3.83;1.20;;;4.60;99.90;;;;;;4803409;29;20129;-76
2021/03/12 07:01:58;;;;;;;2.30;0.50;;;4.50;99.90;;;;;;4800578;29;20077;-77
2021/03/12 07:04:38;;;;;;;2.47;0.70;;;4.50;99.90;;;;;;4803033;29;20062;-77
2021/03/12 07:07:34;;;;;;;3.42;0.60;;;4.60;99.90;;;;;;4808564;29;20046;-77
2021/03/12 07:10:14;;;;;;;1.83;1.15;;;4.70;99.90;;;;;;4799215;29;20054;-76
2021/03/12 07:12:52;;;;;;;4.03;1.13;;;4.70;99.90;;;;;;4795418;29;20497;-76
2021/03/12 07:15:28;;;;;;;3.97;0.90;;;4.80;99.90;;;;;;4822238;29;20123;-76
2021/03/12 07:18:11;;;;;;;5.35;1.63;;;4.80;99.90;;;;;;4822130;29;20053;-77
2021/03/12 07:20:47;;;;;;;4.88;1.88;;;4.90;99.90;;;;;;4794019;29;20077;-77
2021/03/12 07:23:20;;;;;;;3.65;0.88;;;5.00;99.90;;;;;;4815936;29;20066;-77
2021/03/12 07:25:47;;;;;;;3.10;0.57;;;5.00;99.90;;;;;;4806633;29;20502;-77
2021/03/12 07:28:22;;;;;;;;;;;5.10;99.90;;;;;;4807641;29;20042;-77
2021/03/12 07:31:11;;;;;;;1.92;0.50;;;5.10;99.90;;;;;;4800327;29;19933;-77
2021/03/12 07:33:52;;;;;;;1.30;0.55;;;5.20;99.90;;;;;;4787689;29;20124;-77
2021/03/12 07:36:26;;;;;;;1.60;0.40;;;5.20;99.90;;;;;;4786770;29;20055;-76
2021/03/12 07:39:03;;;;;;;5.93;0.80;;;5.20;99.90;;;;;;4803306;29;20137;-76
2021/03/12 07:41:34;;;;;;;0.75;0.50;;;5.20;99.90;;;;;;4792488;29;20050;-77
2021/03/12 07:44:21;;;;;;;3.22;0.50;;;5.30;99.90;;;;;;4812223;29;20050;-77
2021/03/12 07:47:05;;;;;;;1.70;0.47;;;5.40;99.90;;;;;;4797583;29;20062;-77
2021/03/12 07:49:34;;;;;;;2.65;0.52;;;5.40;99.90;;;;;;4798300;29;20119;-77
2021/03/12 07:52:17;;;;;;;1.90;0.52;;;5.40;99.90;;;;;;4812623;29;20046;-77
2021/03/12 07:54:50;;;;;;;1.77;0.57;;;5.50;99.90;;;;;;4825077;29;20605;-77
2021/03/12 07:57:31;;;;;;;1.40;0.73;;;5.50;99.90;;;;;;4808476;29;20082;-77
2021/03/12 08:00:24;;;;;;;2.80;0.55;;;5.60;99.90;;;;;;4801927;29;20070;-76
2021/03/12 08:03:28;;;;;;;3.15;0.73;;;5.70;99.90;;;;;;4794705;29;20054;-76
2021/03/12 08:06:20;;;;;;;2.88;0.50;;;5.80;99.90;;;;;;4796885;29;20530;-77
2021/03/12 08:09:32;;;;;;;2.80;0.82;;;5.80;99.90;;;;;;4823813;29;20046;-76
2021/03/12 08:12:37;;;;;;;6.10;1.70;;;5.90;99.90;;;;;;4827357;29;20049;-76
2021/03/12 08:15:30;;;;;;;3.22;1.10;;;6.00;99.90;;;;;;4776021;29;20055;-76
2021/03/12 08:18:03;;;;;;;2.22;0.60;;;6.00;99.90;;;;;;4782370;29;20058;-77
2021/03/12 08:20:41;;;;;;;4.22;0.70;;;6.10;99.90;;;;;;4794452;29;20050;-77
2021/03/12 08:23:33;;;;;;;2.05;0.57;;;6.20;99.90;;;;;;4793010;29;20077;-77
2021/03/12 08:26:47;;;;;;;0.88;0.50;;;6.20;99.90;;;;;;4811474;29;20417;-77
2021/03/12 08:29:53;;;;;;;3.35;0.70;;;6.20;99.90;;;;;;4819089;29;20280;-77
2021/03/12 08:32:38;;;;;;;2.13;0.50;;;6.20;99.90;;;;;;4809636;29;20062;-77
2021/03/12 08:35:42;;;;;;;2.55;0.75;;;6.30;99.90;;;;;;4813189;29;20117;-77
2021/03/12 08:38:37;;;;;;;3.47;0.98;;;6.20;99.90;;;;;;4810875;29;20057;-77
2021/03/12 08:41:39;;;;;;;;;;;6.40;99.90;;;;;;4808544;29;20123;-77
2021/03/12 08:44:26;;;;;;;2.65;0.68;;;6.40;99.90;;;;;;4806513;29;19925;-77
2021/03/12 08:47:19;;;;;;;2.15;0.68;;;6.50;99.90;;;;;;4798216;29;20052;-77
2021/03/12 08:49:54;;;;;;;3.20;0.75;;;6.50;99.90;;;;;;4824211;29;20429;-77
2021/03/12 08:52:33;;;;;;;2.90;0.60;;;6.50;99.90;;;;;;4810156;29;20078;-77
2021/03/12 08:55:22;;;;;;;2.85;0.70;;;6.60;99.90;;;;;;4824550;29;20313;-77
2021/03/12 08:58:13;;;;;;;2.47;0.65;;;6.80;99.90;;;;;;4824382;29;20038;-77
2021/03/12 09:00:41;;;;;;;4.05;1.02;;;6.90;99.90;;;;;;4809448;29;20108;-76
2021/03/12 09:03:37;;;;;;;1.88;0.52;;;6.90;99.90;;;;;;4820826;29;20479;-77
2021/03/12 09:06:32;;;;;;;0.90;0.43;;;6.90;99.90;;;;;;4812142;29;20087;-76
2021/03/12 09:09:14;;;;;;;3.97;0.82;;;7.20;99.90;;;;;;4803781;29;20137;-77
2021/03/12 09:12:09;;;;;;;2.05;0.50;;;7.20;99.90;;;;;;4795068;29;20095;-77
2021/03/12 09:15:02;;;;;;;3.40;0.60;;;7.30;99.90;;;;;;4794843;29;20050;-77
2021/03/12 09:17:37;;;;;;;3.92;0.60;;;7.20;99.90;;;;;;4820529;29;20506;-76
2021/03/12 09:20:20;;;;;;;1.13;0.45;;;7.20;99.90;;;;;;4797332;29;20054;-77
2021/03/12 09:22:58;;;;;;;2.83;0.77;;;7.10;99.90;;;;;;4798256;29;20078;-77
2021/03/12 09:25:37;;;;;;;2.40;1.05;;;7.10;99.90;;;;;;4807952;29;20050;-77
2021/03/12 09:28:13;;;;;;;2.40;0.55;;;7.10;99.90;;;;;;4796063;29;20138;-77
2021/03/12 09:30:59;;;;;;;5.07;0.70;;;7.20;99.90;;;;;;4794378;29;20073;-77
2021/03/12 09:33:51;;;;;;;4.55;0.80;;;7.30;99.90;;;;;;4803466;29;20055;-77
2021/03/12 09:36:39;;;;;;;3.05;1.42;;;7.40;99.90;;;;;;4809980;29;20455;-77
2021/03/12 09:39:26;;;;;;;4.78;0.88;;;7.30;99.90;;;;;;4802431;29;20051;-77
2021/03/12 09:42:09;;;;;;;6.78;0.93;;;7.20;99.90;;;;;;4800276;29;20106;-77
2021/03/12 09:44:46;;;;;;;2.15;0.63;;;7.10;99.90;;;;;;4810266;29;20141;-77
2021/03/12 09:47:25;;;;;;;3.20;0.70;;;7.00;99.90;;;;;;4804438;29;20583;-77
2021/03/12 09:50:03;;;;;;;3.20;1.63;;;6.90;99.90;;;;;;4814216;29;20053;-76
2021/03/12 09:52:39;;;;;;;0.80;0.50;;;6.90;99.90;;;;;;4791312;29;20050;-76
2021/03/12 09:55:24;;;;;;;2.15;0.85;;;7.00;99.90;;;;;;4813417;29;20058;-77
2021/03/12 09:57:52;;;;;;;2.60;0.90;;;7.00;99.90;;;;;;4806402;29;20139;-77
2021/03/12 10:00:26;;;;;;;4.90;0.98;;;7.10;99.90;;;;;;4791573;29;20460;-77
2021/03/12 10:03:02;;;;;;;3.05;0.80;;;7.20;99.90;;;;;;4795034;29;20050;-77
2021/03/12 10:05:47;;;;;;;3.67;1.23;;;7.20;99.90;;;;;;4810528;29;20061;-77
2021/03/12 10:09:04;;;;;;;5.10;1.85;;;7.20;99.90;;;;;;4792746;29;20058;-77
2021/03/12 10:12:00;;;;;;;1.80;0.70;;;7.20;99.90;;;;;;4816578;29;20050;-77
2021/03/12 10:14:51;;;;;;;6.25;1.60;;;7.10;99.90;;;;;;4820330;29;20085;-76
2021/03/12 10:17:39;;;;;;;4.65;1.00;;;7.10;99.90;;;;;;4808954;29;20118;-77
2021/03/12 10:20:20;;;;;;;4.55;1.67;;;7.20;99.90;;;;;;4799374;29;20050;-76
2021/03/12 10:22:52;;;;;;;4.93;1.42;;;7.30;99.90;;;;;;4803849;29;20264;-77
2021/03/12 10:25:39;;;;;;;2.85;1.73;;;7.40;99.90;;;;;;4792701;29;20057;-77
2021/03/12 10:28:11;;;;;;;3.10;1.10;;;7.50;99.30;;;;;;4790544;29;20559;-77
2021/03/12 10:30:56;;;;;;;2.80;0.70;;;7.50;99.20;;;;;;4788379;29;20039;-77
2021/03/12 10:33:25;;;;;;;2.45;0.88;;;7.80;99.90;;;;;;4797402;29;20507;-77
2021/03/12 10:35:58;;;;;;;4.00;1.38;;;8.20;99.90;;;;;;4801714;29;20057;-77
2021/03/12 10:38:33;;;;;;;1.15;0.60;;;8.40;96.30;;;;;;4775105;29;20062;-76
2021/03/12 10:41:05;;;;;;;3.42;0.95;;;8.40;95.20;;;;;;4794814;29;20134;-76
2021/03/12 10:43:36;;;;;;;4.68;1.60;;;8.40;94.70;;;;;;4796742;29;20538;-77
2021/03/12 10:46:09;;;;;;;3.13;0.63;;;8.40;93.80;;;;;;4805405;29;20132;-77
2021/03/12 10:48:47;;;;;;;4.13;0.65;;;8.30;93.20;;;;;;4792491;29;20045;-77
2021/03/12 10:51:20;;;;;;;2.53;1.00;;;8.20;92.90;;;;;;4793460;29;20047;-77
2021/03/12 10:53:47;;;;;;;4.13;0.75;;;8.20;92.50;;;;;;4787898;29;20058;-77
2021/03/12 10:56:15;;;;;;;3.47;0.80;;;8.20;91.30;;;;;;4800489;29;20078;-77
2021/03/12 10:58:48;;;;;;;2.42;0.60;;;8.30;91.60;;;;;;4789758;29;20061;-77
2021/03/12 11:01:20;;;;;;;1.70;0.90;;;8.30;89.70;;;;;;4801437;29;20082;-77
2021/03/12 11:03:47;;;;;;;2.25;0.77;;;8.20;87.60;;;;;;4786167;29;20082;-77
2021/03/12 11:06:20;;;;;;;2.50;0.70;;;8.30;89.10;;;;;;4800117;29;20078;-77
2021/03/12 11:08:51;;;;;;;3.30;1.00;;;8.50;90.50;;;;;;4796222;29;20075;-77
2021/03/12 11:11:21;;;;;;;2.17;0.60;;;8.70;91.00;;;;;;4788731;29;20146;-77
2021/03/12 11:13:52;;;;;;;1.85;0.45;;;8.90;90.50;;;;;;4793618;29;20050;-77
2021/03/12 11:16:24;;;;;;;3.05;1.00;;;9.10;90.30;;;;;;4799750;29;20537;-77
2021/03/12 11:18:55;;;;;;;1.42;0.60;;;9.00;90.90;;;;;;4810704;29;20050;-77
2021/03/12 11:21:28;;;;;;;0.90;0.50;;;9.20;90.80;;;;;;4796270;29;20070;-77
2021/03/12 11:23:55;;;;;;;2.50;0.50;;;9.20;86.70;;;;;;4794830;29;20046;-77
2021/03/12 11:26:26;;;;;;;3.72;0.73;;;9.10;86.20;;;;;;4795500;29;20140;-77
2021/03/12 11:28:52;;;;;;;1.75;0.85;;;9.20;87.60;;;;;;4794533;29;20564;-77
2021/03/12 11:31:25;;;;;;;2.28;1.05;;;9.40;88.50;;;;;;4804296;29;20584;-77
2021/03/12 11:33:51;;;;;;;3.88;1.33;;;9.30;86.40;;;;;;4809740;29;20081;-77
2021/03/12 11:36:18;;;;;;;4.93;0.73;;;9.30;85.60;;;;;;4809823;29;20054;-77
2021/03/12 11:38:44;;;;;;;1.88;0.60;;;9.00;82.00;;;;;;4797038;29;20130;-77
2021/03/12 11:41:10;;;;;;;1.58;0.60;;;8.90;85.90;;;;;;4809944;29;20133;-77
2021/03/12 11:43:36;;;;;;;2.88;0.77;;;8.80;82.90;;;;;;4809932;29;20054;-77
2021/03/12 11:46:03;;;;;;;2.20;0.77;;;8.70;82.40;;;;;;4795555;29;20070;-77
2021/03/12 11:48:29;;;;;;;2.83;1.13;;;8.50;81.30;;;;;;4794550;29;20146;-77
2021/03/12 11:51:01;;;;;;;1.33;0.50;;;8.50;83.70;;;;;;4809738;29;20050;-77
2021/03/12 11:53:33;;;;;;;1.30;0.70;;;8.60;86.40;;;;;;4809587;29;20140;-77
2021/03/12 11:56:05;;;;;;;3.55;0.70;;;8.80;88.50;;;;;;4813534;29;20471;-77
2021/03/12 11:58:36;;;;;;;2.40;1.00;;;8.80;76.50;;;;;;4808475;29;20201;-78
2021/03/12 12:01:02;;;;;;;1.80;0.65;;;8.60;77.60;;;;;;4814052;29;20570;-79
2021/03/12 12:03:33;;;;;;;2.97;0.60;;;8.40;77.90;;;;;;4812140;29;20141;-78
2021/03/12 12:06:05;;;;;;;3.47;1.27;;;8.30;77.70;;;;;;4798235;29;20078;-78
2021/03/12 12:08:36;;;;;;;2.65;1.33;;;8.30;79.20;;;;;;4798080;29;20058;-78
2021/03/12 12:11:07;;;;;;;4.30;0.60;;;8.40;80.70;;;;;;4797982;29;20145;-78
2021/03/12 12:13:38;;;;;;;3.17;0.90;;;8.40;79.40;;;;;;4797706;29;20149;-79
2021/03/12 12:16:10;;;;;;;2.58;0.65;;;8.50;83.30;;;;;;4797678;29;20046;-79
2021/03/12 12:18:41;;;;;;;4.20;0.77;;;8.80;84.40;;;;;;4797813;29;20413;-79
2021/03/12 12:21:12;;;;;;;1.40;0.40;;;8.80;82.30;;;;;;4813063;29;20087;-77
2021/03/12 12:23:39;;;;;;;2.70;0.57;;;8.80;80.00;;;;;;4805923;29;20085;-78
2021/03/12 12:26:10;;;;;;;2.35;1.52;;;8.60;82.50;;;;;;4804878;29;20050;-78
2021/03/12 12:28:42;;;;;;;3.15;0.70;;;8.50;80.60;;;;;;4825806;29;20083;-79
2021/03/12 12:31:13;;;;;;;0.77;0.52;;;8.40;80.90;;;;;;4801871;29;20042;-79
2021/03/12 12:33:44;;;;;;;2.22;0.75;;;8.40;80.50;;;;;;4813352;29;20054;-79
2021/03/12 12:36:15;;;;;;;1.10;0.60;;;8.50;84.70;;;;;;4808708;29;20053;-79
2021/03/12 12:38:47;;;;;;;4.75;0.70;;;8.80;82.90;;;;;;4808267;29;20761;-78
2021/03/12 12:41:18;;;;;;;2.30;0.50;;;8.90;80.60;;;;;;4795012;29;20498;-78
2021/03/12 12:43:45;;;;;;;2.63;0.50;;;9.10;78.10;;;;;;4808537;29;20051;-79
2021/03/12 12:46:17;;;;;;;1.10;0.50;;;9.30;76.60;;;;;;4794589;29;20050;-79
2021/03/12 12:48:49;;;;;;;1.60;0.80;;;9.30;69.10;;;;;;4808117;29;20430;-79
2021/03/12 12:51:20;;;;;;;0.80;0.35;;;9.30;72.60;;;;;;4794193;29;20498;-79
2021/03/12 12:53:51;;;;;;;2.83;0.57;;;9.50;69.50;;;;;;4809118;29;20051;-79
2021/03/12 12:56:23;;;;;;;4.90;0.90;;;9.50;72.10;;;;;;4808540;29;20544;-79
2021/03/12 12:58:54;;;;;;;1.85;0.40;;;9.60;68.80;;;;;;4792911;29;20056;-78
2021/03/12 13:01:26;;;;;;;1.33;0.47;;;9.50;67.90;;;;;;4807477;29;20417;-79
2021/03/12 13:03:57;;;;;;;3.33;0.68;;;9.50;67.40;;;;;;4808382;29;20066;-79
2021/03/12 13:06:23;;;;;;;1.17;0.47;;;9.60;69.10;;;;;;4797860;29;20050;-79
2021/03/12 13:08:55;;;;;;;1.73;0.60;;;9.50;63.20;;;;;;4793040;29;20043;-79
2021/03/12 13:11:26;;;;;;;3.63;0.77;;;9.50;66.40;;;;;;4807927;29;20452;-78
2021/03/12 13:13:58;;;;;;;1.90;0.70;;;9.60;65.70;;;;;;4793929;29;20142;-79
2021/03/12 13:16:29;;;;;;;2.28;0.70;;;9.70;64.30;;;;;;4790110;29;20047;-78
2021/03/12 13:19:00;;;;;;;2.25;0.60;;;10.00;68.40;;;;;;4789335;29;20058;-79
2021/03/12 13:21:31;;;;;;;6.43;1.05;;;10.20;64.90;;;;;;4790820;29;20043;-80
2021/03/12 13:24:03;;;;;;;2.25;0.50;;;10.20;63.30;;;;;;4776432;29;20039;-79
2021/03/12 13:26:35;;;;;;;1.50;0.63;;;10.10;62.80;;;;;;4777521;29;20051;-78
2021/03/12 13:29:01;;;;;;;1.85;0.75;;;10.10;64.20;;;;;;4789907;29;20582;-79
2021/03/12 13:31:32;;;;;;;4.05;1.15;;;10.00;60.90;;;;;;4804134;29;20101;-79
2021/03/12 13:34:05;;;;;;;1.55;0.50;;;10.00;63.10;;;;;;4790740;29;20046;-79
2021/03/12 13:36:36;;;;;;;1.13;0.50;;;9.90;66.00;;;;;;4807549;29;20439;-79
2021/03/12 13:39:07;;;;;;;3.30;0.70;;;9.70;64.40;;;;;;4793446;29;20149;-79
2021/03/12 13:41:39;;;;;;;2.15;0.57;;;9.50;60.50;;;;;;4793201;29;20054;-79
2021/03/12 13:44:13;;;;;;;1.10;0.57;;;9.30;60.50;;;;;;4793676;29;20060;-78